sensor_id;sensor_type;location;lat;lon;timestamp;temperature;humidity
2300;DHT22;1158;48.750;9.078;2023-08-01T00:00:12;16.40;99.90
2300;DHT22;1158;48.750;9.078;2023-08-01T00:02:39;16.40;99.90
2300;DHT22;1158;48.750;9.078;2023-08-01T00:05:09;16.30;99.90
2300;DHT22;1158;48.750;9.078;2023-08-01T00:07:36;16.30;99.90
2300;DHT22;1158;48.750;9.078;2023-08-01T00:10:03;16.20;99.90
2300;DHT22;1158;48.750;9.078;2023-08-01T00:12:30;16.20;99.90
2300;DHT22;1158;48.750;9.078;2023-08-01T00:14:57;16.10;99.90
2300;DHT22;1158;48.750;9.078;2023-08-01T00:17:24;16.10;99.90
2300;DHT22;1158;48.750;9.078;2023-08-01T00:19:50;16.10;99.90
2300;DHT22;1158;48.750;9.078;2023-08-01T00:22:18;16.00;99.90
2300;DHT22;1158;48.750;9.078;2023-08-01T00:24:45;16.00;99.90
2300;DHT22;1158;48.750;9.078;2023-08-01T00:27:12;15.90;99.90
2300;DHT22;1158;48.750;9.078;2023-08-01T00:29:39;15.90;99.90
2300;DHT22;1158;48.750;9.078;2023-08-01T00:32:07;16.00;99.90
2300;DHT22;1158;48.750;9.078;2023-08-01T00:34:33;16.00;99.90
2300;DHT22;1158;48.750;9.078;2023-08-01T00:37:00;16.00;99.90
2300;DHT22;1158;48.750;9.078;2023-08-01T00:39:28;16.00;99.90
2300;DHT22;1158;48.750;9.078;2023-08-01T00:41:55;16.00;99.90
2300;DHT22;1158;48.750;9.078;2023-08-01T00:44:22;16.00;99.90
2300;DHT22;1158;48.750;9.078;2023-08-01T00:46:49;16.10;99.90
2300;DHT22;1158;48.750;9.078;2023-08-01T00:49:16;16.00;99.90
2300;DHT22;1158;48.750;9.078;2023-08-01T00:51:43;16.00;99.90
2300;DHT22;1158;48.750;9.078;2023-08-01T00:54:10;16.00;99.90
2300;DHT22;1158;48.750;9.078;2023-08-01T00:56:38;16.00;99.90
2300;DHT22;1158;48.750;9.078;2023-08-01T00:59:05;16.10;99.90
2300;DHT22;1158;48.750;9.078;2023-08-01T01:01:32;16.10;99.90
2300;DHT22;1158;48.750;9.078;2023-08-01T01:03:59;16.10;99.90
2300;DHT22;1158;48.750;9.078;2023-08-01T01:06:31;16.10;99.90
2300;DHT22;1158;48.750;9.078;2023-08-01T01:08:58;16.20;99.90
2300;DHT22;1158;48.750;9.078;2023-08-01T01:11:25;16.20;99.90
2300;DHT22;1158;48.750;9.078;2023-08-01T01:13:53;16.20;99.90
2300;DHT22;1158;48.750;9.078;2023-08-01T01:16:20;16.20;99.90
2300;DHT22;1158;48.750;9.078;2023-08-01T01:18:47;16.20;99.90
2300;DHT22;1158;48.750;9.078;2023-08-01T01:21:15;16.20;99.90
2300;DHT22;1158;48.750;9.078;2023-08-01T01:23:42;16.30;99.90
2300;DHT22;1158;48.750;9.078;2023-08-01T01:26:10;16.30;99.90
2300;DHT22;1158;48.750;9.078;2023-08-01T01:28:38;16.40;99.90
2300;DHT22;1158;48.750;9.078;2023-08-01T01:31:06;16.30;99.90
2300;DHT22;1158;48.750;9.078;2023-08-01T01:33:33;16.30;99.90
2300;DHT22;1158;48.750;9.078;2023-08-01T01:36:00;16.20;99.90
2300;DHT22;1158;48.750;9.078;2023-08-01T01:38:29;16.10;99.90
2300;DHT22;1158;48.750;9.078;2023-08-01T01:40:55;16.10;99.90
2300;DHT22;1158;48.750;9.078;2023-08-01T01:43:22;16.00;99.90
2300;DHT22;1158;48.750;9.078;2023-08-01T01:45:49;16.00;99.90
2300;DHT22;1158;48.750;9.078;2023-08-01T01:48:15;15.90;99.90
2300;DHT22;1158;48.750;9.078;2023-08-01T01:50:42;15.90;99.90
2300;DHT22;1158;48.750;9.078;2023-08-01T01:53:09;15.90;99.90
2300;DHT22;1158;48.750;9.078;2023-08-01T01:55:36;15.90;99.90
2300;DHT22;1158;48.750;9.078;2023-08-01T01:58:03;15.80;99.90
2300;DHT22;1158;48.750;9.078;2023-08-01T02:00:30;15.80;99.90
2300;DHT22;1158;48.750;9.078;2023-08-01T02:02:56;15.80;99.90
2300;DHT22;1158;48.750;9.078;2023-08-01T02:05:23;15.80;99.90
2300;DHT22;1158;48.750;9.078;2023-08-01T02:07:50;15.80;99.90
2300;DHT22;1158;48.750;9.078;2023-08-01T02:10:16;15.70;99.90
2300;DHT22;1158;48.750;9.078;2023-08-01T02:12:44;15.80;99.90
2300;DHT22;1158;48.750;9.078;2023-08-01T02:15:11;15.80;99.90
2300;DHT22;1158;48.750;9.078;2023-08-01T02:17:38;15.80;99.90
2300;DHT22;1158;48.750;9.078;2023-08-01T02:20:06;15.80;99.90
2300;DHT22;1158;48.750;9.078;2023-08-01T02:22:32;15.80;99.90
2300;DHT22;1158;48.750;9.078;2023-08-01T02:24:59;15.90;99.90
2300;DHT22;1158;48.750;9.078;2023-08-01T02:27:26;15.90;99.90
2300;DHT22;1158;48.750;9.078;2023-08-01T02:29:54;15.90;99.90
2300;DHT22;1158;48.750;9.078;2023-08-01T02:32:21;15.80;99.90
2300;DHT22;1158;48.750;9.078;2023-08-01T02:34:47;15.80;99.90
2300;DHT22;1158;48.750;9.078;2023-08-01T02:37:14;15.80;99.90
2300;DHT22;1158;48.750;9.078;2023-08-01T02:39:41;15.90;99.90
2300;DHT22;1158;48.750;9.078;2023-08-01T02:42:07;15.90;99.90
2300;DHT22;1158;48.750;9.078;2023-08-01T02:44:34;15.80;99.90
2300;DHT22;1158;48.750;9.078;2023-08-01T02:47:02;15.80;99.90
2300;DHT22;1158;48.750;9.078;2023-08-01T02:49:29;15.90;99.90
2300;DHT22;1158;48.750;9.078;2023-08-01T02:51:56;15.90;99.90
2300;DHT22;1158;48.750;9.078;2023-08-01T02:54:24;15.90;99.90
2300;DHT22;1158;48.750;9.078;2023-08-01T02:56:51;15.90;99.90
2300;DHT22;1158;48.750;9.078;2023-08-01T02:59:17;15.90;99.90
2300;DHT22;1158;48.750;9.078;2023-08-01T03:01:44;15.90;99.90
2300;DHT22;1158;48.750;9.078;2023-08-01T03:04:12;15.90;99.90
2300;DHT22;1158;48.750;9.078;2023-08-01T03:06:40;15.90;99.90
2300;DHT22;1158;48.750;9.078;2023-08-01T03:09:07;15.90;99.90
2300;DHT22;1158;48.750;9.078;2023-08-01T03:11:35;15.90;99.90
2300;DHT22;1158;48.750;9.078;2023-08-01T03:14:02;15.90;99.90
2300;DHT22;1158;48.750;9.078;2023-08-01T03:16:29;15.90;99.90
2300;DHT22;1158;48.750;9.078;2023-08-01T03:18:56;15.90;99.90
2300;DHT22;1158;48.750;9.078;2023-08-01T03:21:26;16.00;99.90
2300;DHT22;1158;48.750;9.078;2023-08-01T03:23:52;16.00;99.90
2300;DHT22;1158;48.750;9.078;2023-08-01T03:26:19;16.00;99.90
2300;DHT22;1158;48.750;9.078;2023-08-01T03:28:46;16.00;99.90
2300;DHT22;1158;48.750;9.078;2023-08-01T03:31:12;16.00;99.90
2300;DHT22;1158;48.750;9.078;2023-08-01T03:33:39;16.10;99.90
2300;DHT22;1158;48.750;9.078;2023-08-01T03:36:06;16.20;99.90
2300;DHT22;1158;48.750;9.078;2023-08-01T03:38:34;16.40;99.90
2300;DHT22;1158;48.750;9.078;2023-08-01T03:41:01;16.40;99.90
2300;DHT22;1158;48.750;9.078;2023-08-01T03:43:29;16.60;99.90
2300;DHT22;1158;48.750;9.078;2023-08-01T03:45:56;16.60;99.90
2300;DHT22;1158;48.750;9.078;2023-08-01T03:48:22;16.60;99.90
2300;DHT22;1158;48.750;9.078;2023-08-01T03:50:49;16.70;99.90
2300;DHT22;1158;48.750;9.078;2023-08-01T03:53:16;16.80;99.90
2300;DHT22;1158;48.750;9.078;2023-08-01T03:55:46;16.80;99.90
2300;DHT22;1158;48.750;9.078;2023-08-01T03:58:13;16.80;99.90
2300;DHT22;1158;48.750;9.078;2023-08-01T04:00:40;16.80;99.90
2300;DHT22;1158;48.750;9.078;2023-08-01T04:03:07;16.80;99.90
2300;DHT22;1158;48.750;9.078;2023-08-01T04:05:33;16.90;99.90
2300;DHT22;1158;48.750;9.078;2023-08-01T04:08:00;16.90;99.90
2300;DHT22;1158;48.750;9.078;2023-08-01T04:10:27;17.00;99.90
2300;DHT22;1158;48.750;9.078;2023-08-01T04:12:55;17.00;99.90
2300;DHT22;1158;48.750;9.078;2023-08-01T04:15:22;17.10;99.90
2300;DHT22;1158;48.750;9.078;2023-08-01T04:17:48;17.10;99.90
2300;DHT22;1158;48.750;9.078;2023-08-01T04:20:15;17.00;99.90
2300;DHT22;1158;48.750;9.078;2023-08-01T04:22:42;17.00;99.90
2300;DHT22;1158;48.750;9.078;2023-08-01T04:25:09;17.00;99.90
2300;DHT22;1158;48.750;9.078;2023-08-01T04:27:35;16.90;99.90
2300;DHT22;1158;48.750;9.078;2023-08-01T04:30:04;16.90;99.90
2300;DHT22;1158;48.750;9.078;2023-08-01T04:32:31;16.80;99.90
2300;DHT22;1158;48.750;9.078;2023-08-01T04:34:58;16.90;99.90
2300;DHT22;1158;48.750;9.078;2023-08-01T04:37:25;16.80;99.90
2300;DHT22;1158;48.750;9.078;2023-08-01T04:39:51;16.90;99.90
2300;DHT22;1158;48.750;9.078;2023-08-01T04:42:18;16.90;99.90
2300;DHT22;1158;48.750;9.078;2023-08-01T04:44:45;16.90;99.90
2300;DHT22;1158;48.750;9.078;2023-08-01T04:47:14;17.00;99.90
2300;DHT22;1158;48.750;9.078;2023-08-01T04:49:40;17.00;99.90
2300;DHT22;1158;48.750;9.078;2023-08-01T04:52:07;17.00;99.90
2300;DHT22;1158;48.750;9.078;2023-08-01T04:54:34;17.10;99.90
2300;DHT22;1158;48.750;9.078;2023-08-01T04:57:00;17.20;99.90
2300;DHT22;1158;48.750;9.078;2023-08-01T04:59:27;17.20;99.90
2300;DHT22;1158;48.750;9.078;2023-08-01T05:01:54;17.30;99.90
2300;DHT22;1158;48.750;9.078;2023-08-01T05:04:22;17.30;99.90
2300;DHT22;1158;48.750;9.078;2023-08-01T05:06:49;17.40;99.90
2300;DHT22;1158;48.750;9.078;2023-08-01T05:09:15;17.30;99.90
2300;DHT22;1158;48.750;9.078;2023-08-01T05:11:42;17.40;99.90
2300;DHT22;1158;48.750;9.078;2023-08-01T05:14:09;17.30;99.90
2300;DHT22;1158;48.750;9.078;2023-08-01T05:16:35;17.30;99.90
2300;DHT22;1158;48.750;9.078;2023-08-01T05:19:02;17.30;99.90
2300;DHT22;1158;48.750;9.078;2023-08-01T05:21:30;17.30;99.90
2300;DHT22;1158;48.750;9.078;2023-08-01T05:23:57;17.30;99.90
2300;DHT22;1158;48.750;9.078;2023-08-01T05:26:24;17.30;99.90
2300;DHT22;1158;48.750;9.078;2023-08-01T05:28:50;17.30;99.90
2300;DHT22;1158;48.750;9.078;2023-08-01T05:31:17;17.30;99.90
2300;DHT22;1158;48.750;9.078;2023-08-01T05:33:44;17.30;99.90
2300;DHT22;1158;48.750;9.078;2023-08-01T05:36:10;17.30;99.90
2300;DHT22;1158;48.750;9.078;2023-08-01T05:38:39;17.30;99.90
2300;DHT22;1158;48.750;9.078;2023-08-01T05:41:05;17.40;99.90
2300;DHT22;1158;48.750;9.078;2023-08-01T05:43:32;17.40;99.90
2300;DHT22;1158;48.750;9.078;2023-08-01T05:45:59;17.40;99.90
2300;DHT22;1158;48.750;9.078;2023-08-01T05:48:25;17.40;99.90
2300;DHT22;1158;48.750;9.078;2023-08-01T05:50:54;17.50;99.90
2300;DHT22;1158;48.750;9.078;2023-08-01T05:53:21;17.60;99.90
2300;DHT22;1158;48.750;9.078;2023-08-01T05:55:49;17.60;99.90
2300;DHT22;1158;48.750;9.078;2023-08-01T05:58:16;17.70;99.90
2300;DHT22;1158;48.750;9.078;2023-08-01T06:00:43;17.70;99.90
2300;DHT22;1158;48.750;9.078;2023-08-01T06:03:10;17.70;99.90
2300;DHT22;1158;48.750;9.078;2023-08-01T06:05:36;17.70;99.90
2300;DHT22;1158;48.750;9.078;2023-08-01T06:08:05;17.80;99.90
2300;DHT22;1158;48.750;9.078;2023-08-01T06:10:32;17.90;99.90
2300;DHT22;1158;48.750;9.078;2023-08-01T06:13:00;17.90;99.90
2300;DHT22;1158;48.750;9.078;2023-08-01T06:15:26;17.90;99.90
2300;DHT22;1158;48.750;9.078;2023-08-01T06:17:53;17.80;99.90
2300;DHT22;1158;48.750;9.078;2023-08-01T06:20:20;17.80;99.90
2300;DHT22;1158;48.750;9.078;2023-08-01T06:22:46;17.80;99.90
2300;DHT22;1158;48.750;9.078;2023-08-01T06:25:13;17.80;99.90
2300;DHT22;1158;48.750;9.078;2023-08-01T06:27:40;17.50;99.90
2300;DHT22;1158;48.750;9.078;2023-08-01T06:30:09;17.10;99.90
2300;DHT22;1158;48.750;9.078;2023-08-01T06:32:36;16.90;99.90
2300;DHT22;1158;48.750;9.078;2023-08-01T06:35:03;16.70;99.90
2300;DHT22;1158;48.750;9.078;2023-08-01T06:37:29;16.70;99.90
2300;DHT22;1158;48.750;9.078;2023-08-01T06:39:58;16.70;99.90
2300;DHT22;1158;48.750;9.078;2023-08-01T06:42:24;16.70;99.90
2300;DHT22;1158;48.750;9.078;2023-08-01T06:44:51;16.60;99.90
2300;DHT22;1158;48.750;9.078;2023-08-01T06:47:19;16.50;99.90
2300;DHT22;1158;48.750;9.078;2023-08-01T06:49:46;16.40;99.90
2300;DHT22;1158;48.750;9.078;2023-08-01T06:52:13;16.20;99.90
2300;DHT22;1158;48.750;9.078;2023-08-01T06:54:39;16.00;99.90
2300;DHT22;1158;48.750;9.078;2023-08-01T06:57:06;15.80;99.90
2300;DHT22;1158;48.750;9.078;2023-08-01T06:59:33;15.70;99.90
2300;DHT22;1158;48.750;9.078;2023-08-01T07:02:00;15.70;99.90
2300;DHT22;1158;48.750;9.078;2023-08-01T07:04:28;15.70;99.90
2300;DHT22;1158;48.750;9.078;2023-08-01T07:06:55;15.60;99.90
2300;DHT22;1158;48.750;9.078;2023-08-01T07:09:22;15.70;99.90
2300;DHT22;1158;48.750;9.078;2023-08-01T07:11:48;15.70;99.90
2300;DHT22;1158;48.750;9.078;2023-08-01T07:14:15;15.70;99.90
2300;DHT22;1158;48.750;9.078;2023-08-01T07:16:42;15.80;99.90
2300;DHT22;1158;48.750;9.078;2023-08-01T07:19:08;15.90;99.90
2300;DHT22;1158;48.750;9.078;2023-08-01T07:21:36;16.00;99.90
2300;DHT22;1158;48.750;9.078;2023-08-01T07:24:04;15.90;99.90
2300;DHT22;1158;48.750;9.078;2023-08-01T07:26:31;15.80;99.90
2300;DHT22;1158;48.750;9.078;2023-08-01T07:28:58;15.80;99.90
2300;DHT22;1158;48.750;9.078;2023-08-01T07:31:25;15.80;99.90
2300;DHT22;1158;48.750;9.078;2023-08-01T07:33:52;15.70;99.90
2300;DHT22;1158;48.750;9.078;2023-08-01T07:36:18;15.70;99.90
2300;DHT22;1158;48.750;9.078;2023-08-01T07:38:48;15.60;99.90
2300;DHT22;1158;48.750;9.078;2023-08-01T07:41:15;15.40;99.90
2300;DHT22;1158;48.750;9.078;2023-08-01T07:43:41;15.40;99.90
2300;DHT22;1158;48.750;9.078;2023-08-01T07:46:08;15.30;99.90
2300;DHT22;1158;48.750;9.078;2023-08-01T07:48:37;15.30;99.90
2300;DHT22;1158;48.750;9.078;2023-08-01T07:51:04;15.30;99.90
2300;DHT22;1158;48.750;9.078;2023-08-01T07:53:33;15.30;99.90
2300;DHT22;1158;48.750;9.078;2023-08-01T07:56:01;15.30;99.90
2300;DHT22;1158;48.750;9.078;2023-08-01T07:58:27;15.30;99.90
2300;DHT22;1158;48.750;9.078;2023-08-01T08:00:54;15.30;99.90
2300;DHT22;1158;48.750;9.078;2023-08-01T08:03:21;15.40;99.90
2300;DHT22;1158;48.750;9.078;2023-08-01T08:05:48;15.40;99.90
2300;DHT22;1158;48.750;9.078;2023-08-01T08:08:15;15.40;99.90
2300;DHT22;1158;48.750;9.078;2023-08-01T08:10:42;15.50;99.90
2300;DHT22;1158;48.750;9.078;2023-08-01T08:13:10;15.60;99.90
2300;DHT22;1158;48.750;9.078;2023-08-01T08:15:37;15.60;99.90
2300;DHT22;1158;48.750;9.078;2023-08-01T08:18:03;15.60;99.90
2300;DHT22;1158;48.750;9.078;2023-08-01T08:20:30;15.60;99.90
2300;DHT22;1158;48.750;9.078;2023-08-01T08:22:57;15.60;99.90
2300;DHT22;1158;48.750;9.078;2023-08-01T08:25:24;15.60;99.90
2300;DHT22;1158;48.750;9.078;2023-08-01T08:27:51;15.60;99.90
2300;DHT22;1158;48.750;9.078;2023-08-01T08:30:19;15.60;99.90
2300;DHT22;1158;48.750;9.078;2023-08-01T08:32:45;15.60;99.90
2300;DHT22;1158;48.750;9.078;2023-08-01T08:35:13;15.60;99.90
2300;DHT22;1158;48.750;9.078;2023-08-01T08:37:40;15.70;99.90
2300;DHT22;1158;48.750;9.078;2023-08-01T08:40:07;15.80;99.90
2300;DHT22;1158;48.750;9.078;2023-08-01T08:42:34;16.00;99.90
2300;DHT22;1158;48.750;9.078;2023-08-01T08:45:02;16.20;99.90
2300;DHT22;1158;48.750;9.078;2023-08-01T08:47:36;16.30;99.90
2300;DHT22;1158;48.750;9.078;2023-08-01T08:50:05;16.40;99.90
2300;DHT22;1158;48.750;9.078;2023-08-01T08:52:32;16.60;99.90
2300;DHT22;1158;48.750;9.078;2023-08-01T08:55:02;16.70;99.90
2300;DHT22;1158;48.750;9.078;2023-08-01T08:57:30;16.70;99.90
2300;DHT22;1158;48.750;9.078;2023-08-01T08:59:57;16.80;99.90
2300;DHT22;1158;48.750;9.078;2023-08-01T09:02:24;17.00;99.90
2300;DHT22;1158;48.750;9.078;2023-08-01T09:04:52;16.90;99.90
2300;DHT22;1158;48.750;9.078;2023-08-01T09:07:24;16.80;99.90
2300;DHT22;1158;48.750;9.078;2023-08-01T09:09:54;16.70;99.90
2300;DHT22;1158;48.750;9.078;2023-08-01T09:12:21;16.70;99.90
2300;DHT22;1158;48.750;9.078;2023-08-01T09:14:48;16.70;99.90
2300;DHT22;1158;48.750;9.078;2023-08-01T09:17:16;16.80;99.90
2300;DHT22;1158;48.750;9.078;2023-08-01T09:19:44;16.70;99.90
2300;DHT22;1158;48.750;9.078;2023-08-01T09:22:12;16.70;99.90
2300;DHT22;1158;48.750;9.078;2023-08-01T09:24:49;16.70;99.90
2300;DHT22;1158;48.750;9.078;2023-08-01T09:27:16;16.80;99.90
2300;DHT22;1158;48.750;9.078;2023-08-01T09:29:43;16.90;99.90
2300;DHT22;1158;48.750;9.078;2023-08-01T09:32:16;16.90;99.90
2300;DHT22;1158;48.750;9.078;2023-08-01T09:34:44;17.00;99.90
2300;DHT22;1158;48.750;9.078;2023-08-01T09:37:12;17.10;99.90
2300;DHT22;1158;48.750;9.078;2023-08-01T09:39:39;17.20;99.90
2300;DHT22;1158;48.750;9.078;2023-08-01T09:42:06;17.30;99.90
2300;DHT22;1158;48.750;9.078;2023-08-01T09:44:35;17.40;99.90
2300;DHT22;1158;48.750;9.078;2023-08-01T09:47:04;17.40;99.90
2300;DHT22;1158;48.750;9.078;2023-08-01T09:49:31;17.50;99.90
2300;DHT22;1158;48.750;9.078;2023-08-01T09:51:59;17.50;99.90
2300;DHT22;1158;48.750;9.078;2023-08-01T09:54:28;17.70;99.90
2300;DHT22;1158;48.750;9.078;2023-08-01T09:56:55;17.80;99.90
2300;DHT22;1158;48.750;9.078;2023-08-01T09:59:23;17.90;99.90
2300;DHT22;1158;48.750;9.078;2023-08-01T10:01:52;18.20;99.90
2300;DHT22;1158;48.750;9.078;2023-08-01T10:04:21;18.40;99.90
2300;DHT22;1158;48.750;9.078;2023-08-01T10:06:54;18.40;99.90
2300;DHT22;1158;48.750;9.078;2023-08-01T10:09:21;18.30;99.90
2300;DHT22;1158;48.750;9.078;2023-08-01T10:11:50;18.50;99.90
2300;DHT22;1158;48.750;9.078;2023-08-01T10:14:19;18.50;99.90
2300;DHT22;1158;48.750;9.078;2023-08-01T10:16:46;18.40;99.90
2300;DHT22;1158;48.750;9.078;2023-08-01T10:19:13;18.60;99.90
2300;DHT22;1158;48.750;9.078;2023-08-01T10:21:41;18.80;99.90
2300;DHT22;1158;48.750;9.078;2023-08-01T10:24:08;18.70;99.90
2300;DHT22;1158;48.750;9.078;2023-08-01T10:26:36;18.80;99.90
2300;DHT22;1158;48.750;9.078;2023-08-01T10:29:04;18.80;99.90
2300;DHT22;1158;48.750;9.078;2023-08-01T10:31:30;18.70;99.90
2300;DHT22;1158;48.750;9.078;2023-08-01T10:34:05;18.80;99.90
2300;DHT22;1158;48.750;9.078;2023-08-01T10:36:32;19.20;99.90
2300;DHT22;1158;48.750;9.078;2023-08-01T10:39:01;19.40;99.90
2300;DHT22;1158;48.750;9.078;2023-08-01T10:41:29;20.20;99.90
2300;DHT22;1158;48.750;9.078;2023-08-01T10:44:08;21.00;99.90
2300;DHT22;1158;48.750;9.078;2023-08-01T10:46:48;21.80;99.90
2300;DHT22;1158;48.750;9.078;2023-08-01T10:49:15;22.50;99.90
2300;DHT22;1158;48.750;9.078;2023-08-01T10:51:42;22.10;99.90
2300;DHT22;1158;48.750;9.078;2023-08-01T10:54:18;21.70;99.90
2300;DHT22;1158;48.750;9.078;2023-08-01T10:56:46;20.90;99.90
2300;DHT22;1158;48.750;9.078;2023-08-01T10:59:15;20.50;99.90
2300;DHT22;1158;48.750;9.078;2023-08-01T11:01:44;20.90;99.90
2300;DHT22;1158;48.750;9.078;2023-08-01T11:04:14;20.90;99.90
2300;DHT22;1158;48.750;9.078;2023-08-01T11:06:45;21.30;99.90
2300;DHT22;1158;48.750;9.078;2023-08-01T11:09:19;22.10;99.90
2300;DHT22;1158;48.750;9.078;2023-08-01T11:11:49;22.50;99.90
2300;DHT22;1158;48.750;9.078;2023-08-01T11:14:19;22.60;99.90
2300;DHT22;1158;48.750;9.078;2023-08-01T11:16:47;23.90;99.90
2300;DHT22;1158;48.750;9.078;2023-08-01T11:19:22;23.50;99.90
2300;DHT22;1158;48.750;9.078;2023-08-01T11:21:50;23.90;99.90
2300;DHT22;1158;48.750;9.078;2023-08-01T11:24:18;23.40;99.90
2300;DHT22;1158;48.750;9.078;2023-08-01T11:26:46;23.10;99.90
2300;DHT22;1158;48.750;9.078;2023-08-01T11:29:14;22.80;99.90
2300;DHT22;1158;48.750;9.078;2023-08-01T11:31:52;22.60;99.90
2300;DHT22;1158;48.750;9.078;2023-08-01T11:34:19;23.00;99.90
2300;DHT22;1158;48.750;9.078;2023-08-01T11:36:46;22.80;99.90
2300;DHT22;1158;48.750;9.078;2023-08-01T11:39:13;23.00;99.90
2300;DHT22;1158;48.750;9.078;2023-08-01T11:41:41;22.80;99.90
2300;DHT22;1158;48.750;9.078;2023-08-01T11:44:08;23.20;99.90
2300;DHT22;1158;48.750;9.078;2023-08-01T11:46:37;23.20;99.90
2300;DHT22;1158;48.750;9.078;2023-08-01T11:49:06;22.50;99.90
2300;DHT22;1158;48.750;9.078;2023-08-01T11:51:39;22.30;99.90
2300;DHT22;1158;48.750;9.078;2023-08-01T11:54:06;22.10;99.90
2300;DHT22;1158;48.750;9.078;2023-08-01T11:56:35;22.20;99.90
2300;DHT22;1158;48.750;9.078;2023-08-01T11:59:08;21.90;99.90
2300;DHT22;1158;48.750;9.078;2023-08-01T12:01:38;22.20;99.90
2300;DHT22;1158;48.750;9.078;2023-08-01T12:04:06;22.60;99.90
2300;DHT22;1158;48.750;9.078;2023-08-01T12:06:33;23.20;99.90
2300;DHT22;1158;48.750;9.078;2023-08-01T12:09:06;23.50;99.90
2300;DHT22;1158;48.750;9.078;2023-08-01T12:11:33;23.30;99.90
2300;DHT22;1158;48.750;9.078;2023-08-01T12:14:01;23.00;99.90
2300;DHT22;1158;48.750;9.078;2023-08-01T12:16:28;23.00;99.90
2300;DHT22;1158;48.750;9.078;2023-08-01T12:18:55;22.80;99.90
2300;DHT22;1158;48.750;9.078;2023-08-01T12:21:24;23.80;99.90
2300;DHT22;1158;48.750;9.078;2023-08-01T12:23:50;24.30;99.00
2300;DHT22;1158;48.750;9.078;2023-08-01T12:26:17;24.00;98.90
2300;DHT22;1158;48.750;9.078;2023-08-01T12:28:44;23.50;99.70
2300;DHT22;1158;48.750;9.078;2023-08-01T12:31:10;24.10;99.20
2300;DHT22;1158;48.750;9.078;2023-08-01T12:33:37;24.70;99.20
2300;DHT22;1158;48.750;9.078;2023-08-01T12:36:04;24.30;98.50
2300;DHT22;1158;48.750;9.078;2023-08-01T12:38:32;23.60;99.80
2300;DHT22;1158;48.750;9.078;2023-08-01T12:41:00;23.40;99.90
2300;DHT22;1158;48.750;9.078;2023-08-01T12:43:27;22.70;99.90
2300;DHT22;1158;48.750;9.078;2023-08-01T12:45:53;22.20;99.90
2300;DHT22;1158;48.750;9.078;2023-08-01T12:48:22;22.50;99.90
2300;DHT22;1158;48.750;9.078;2023-08-01T12:50:49;22.70;99.90
2300;DHT22;1158;48.750;9.078;2023-08-01T12:53:16;22.60;99.90
2300;DHT22;1158;48.750;9.078;2023-08-01T12:55:44;22.00;99.90
2300;DHT22;1158;48.750;9.078;2023-08-01T12:58:11;22.80;99.40
2300;DHT22;1158;48.750;9.078;2023-08-01T13:00:39;23.60;98.00
2300;DHT22;1158;48.750;9.078;2023-08-01T13:03:07;24.20;96.60
2300;DHT22;1158;48.750;9.078;2023-08-01T13:05:34;25.10;96.50
2300;DHT22;1158;48.750;9.078;2023-08-01T13:08:01;24.90;96.00
2300;DHT22;1158;48.750;9.078;2023-08-01T13:10:29;24.70;95.80
2300;DHT22;1158;48.750;9.078;2023-08-01T13:12:58;24.70;96.60
2300;DHT22;1158;48.750;9.078;2023-08-01T13:15:25;24.40;96.60
2300;DHT22;1158;48.750;9.078;2023-08-01T13:17:52;23.50;96.90
2300;DHT22;1158;48.750;9.078;2023-08-01T13:20:19;22.70;97.80
2300;DHT22;1158;48.750;9.078;2023-08-01T13:22:48;22.20;97.80
2300;DHT22;1158;48.750;9.078;2023-08-01T13:25:15;22.30;98.40
2300;DHT22;1158;48.750;9.078;2023-08-01T13:27:41;22.10;98.30
2300;DHT22;1158;48.750;9.078;2023-08-01T13:30:10;22.50;98.70
2300;DHT22;1158;48.750;9.078;2023-08-01T13:32:39;22.50;97.90
2300;DHT22;1158;48.750;9.078;2023-08-01T13:35:06;22.10;98.00
2300;DHT22;1158;48.750;9.078;2023-08-01T13:37:33;21.90;98.40
2300;DHT22;1158;48.750;9.078;2023-08-01T13:40:00;22.30;98.70
2300;DHT22;1158;48.750;9.078;2023-08-01T13:42:27;22.70;98.50
2300;DHT22;1158;48.750;9.078;2023-08-01T13:44:54;22.80;98.70
2300;DHT22;1158;48.750;9.078;2023-08-01T13:47:22;23.80;98.40
2300;DHT22;1158;48.750;9.078;2023-08-01T13:49:49;25.40;96.10
2300;DHT22;1158;48.750;9.078;2023-08-01T13:52:16;26.40;95.10
2300;DHT22;1158;48.750;9.078;2023-08-01T13:54:42;27.20;94.40
2300;DHT22;1158;48.750;9.078;2023-08-01T13:57:09;27.50;93.00
2300;DHT22;1158;48.750;9.078;2023-08-01T13:59:36;27.70;92.90
2300;DHT22;1158;48.750;9.078;2023-08-01T14:02:03;27.60;92.60
2300;DHT22;1158;48.750;9.078;2023-08-01T14:04:31;27.20;92.10
2300;DHT22;1158;48.750;9.078;2023-08-01T14:06:58;26.40;92.10
2300;DHT22;1158;48.750;9.078;2023-08-01T14:09:24;26.30;93.10
2300;DHT22;1158;48.750;9.078;2023-08-01T14:11:51;26.40;93.00
2300;DHT22;1158;48.750;9.078;2023-08-01T14:14:18;26.80;92.70
2300;DHT22;1158;48.750;9.078;2023-08-01T14:16:44;26.80;90.60
2300;DHT22;1158;48.750;9.078;2023-08-01T14:19:11;25.80;91.80
2300;DHT22;1158;48.750;9.078;2023-08-01T14:21:39;26.00;92.10
2300;DHT22;1158;48.750;9.078;2023-08-01T14:24:06;25.60;91.00
2300;DHT22;1158;48.750;9.078;2023-08-01T14:26:32;24.90;92.20
2300;DHT22;1158;48.750;9.078;2023-08-01T14:28:59;25.50;91.60
2300;DHT22;1158;48.750;9.078;2023-08-01T14:31:26;26.40;90.80
2300;DHT22;1158;48.750;9.078;2023-08-01T14:33:52;26.90;90.30
2300;DHT22;1158;48.750;9.078;2023-08-01T14:36:19;27.30;90.20
2300;DHT22;1158;48.750;9.078;2023-08-01T14:38:47;27.60;88.00
2300;DHT22;1158;48.750;9.078;2023-08-01T14:41:19;27.10;86.50
2300;DHT22;1158;48.750;9.078;2023-08-01T14:43:46;26.30;86.80
2300;DHT22;1158;48.750;9.078;2023-08-01T14:46:13;26.80;88.60
2300;DHT22;1158;48.750;9.078;2023-08-01T14:48:40;27.40;87.00
2300;DHT22;1158;48.750;9.078;2023-08-01T14:51:06;27.50;86.70
2300;DHT22;1158;48.750;9.078;2023-08-01T14:53:33;28.10;85.60
2300;DHT22;1158;48.750;9.078;2023-08-01T14:56:01;28.40;85.50
2300;DHT22;1158;48.750;9.078;2023-08-01T14:58:31;28.00;84.30
2300;DHT22;1158;48.750;9.078;2023-08-01T15:00:58;26.50;86.90
2300;DHT22;1158;48.750;9.078;2023-08-01T15:03:25;25.90;89.70
2300;DHT22;1158;48.750;9.078;2023-08-01T15:05:51;26.60;89.00
2300;DHT22;1158;48.750;9.078;2023-08-01T15:08:18;26.80;87.50
2300;DHT22;1158;48.750;9.078;2023-08-01T15:10:45;27.20;87.60
2300;DHT22;1158;48.750;9.078;2023-08-01T15:13:13;27.00;87.90
2300;DHT22;1158;48.750;9.078;2023-08-01T15:15:40;27.20;87.70
2300;DHT22;1158;48.750;9.078;2023-08-01T15:18:07;27.00;87.30
2300;DHT22;1158;48.750;9.078;2023-08-01T15:20:33;27.00;87.80
2300;DHT22;1158;48.750;9.078;2023-08-01T15:23:05;27.50;88.50
2300;DHT22;1158;48.750;9.078;2023-08-01T15:25:32;27.30;86.80
2300;DHT22;1158;48.750;9.078;2023-08-01T15:27:58;26.50;88.10
2300;DHT22;1158;48.750;9.078;2023-08-01T15:30:27;26.10;89.50
2300;DHT22;1158;48.750;9.078;2023-08-01T15:32:53;26.70;88.90
2300;DHT22;1158;48.750;9.078;2023-08-01T15:35:21;26.90;90.20
2300;DHT22;1158;48.750;9.078;2023-08-01T15:37:49;25.80;88.00
2300;DHT22;1158;48.750;9.078;2023-08-01T15:40:16;24.40;89.70
2300;DHT22;1158;48.750;9.078;2023-08-01T15:42:42;23.80;90.80
2300;DHT22;1158;48.750;9.078;2023-08-01T15:45:09;24.50;90.90
2300;DHT22;1158;48.750;9.078;2023-08-01T15:47:37;24.80;90.70
2300;DHT22;1158;48.750;9.078;2023-08-01T15:50:04;25.10;90.10
2300;DHT22;1158;48.750;9.078;2023-08-01T15:52:31;24.80;90.30
2300;DHT22;1158;48.750;9.078;2023-08-01T15:54:58;25.00;89.70
2300;DHT22;1158;48.750;9.078;2023-08-01T15:57:24;24.50;89.30
2300;DHT22;1158;48.750;9.078;2023-08-01T15:59:51;23.80;91.20
2300;DHT22;1158;48.750;9.078;2023-08-01T16:02:18;23.20;91.40